createdAt,value
2023-01-13T00:00:05.265Z,1.2
2023-01-13T00:05:05.243Z,1
2023-01-13T00:10:05.152Z,1.7
2023-01-13T00:15:05.159Z,1.1
2023-01-13T00:20:05.139Z,1.5
2023-01-13T00:25:05.148Z,0.9
2023-01-13T00:30:05.142Z,0.9
2023-01-13T00:35:05.144Z,1
2023-01-13T00:40:05.145Z,0.9
2023-01-13T00:45:05.143Z,1.1
2023-01-13T00:50:05.137Z,1.3
2023-01-13T00:55:05.154Z,0.9
2023-01-13T01:00:05.143Z,0.9
2023-01-13T01:05:05.151Z,1.1
2023-01-13T01:10:05.144Z,1
2023-01-13T01:15:05.160Z,0.9
2023-01-13T01:20:05.181Z,0.8
2023-01-13T01:25:05.145Z,1.1
2023-01-13T01:30:05.141Z,1.1
2023-01-13T01:35:05.143Z,1.2
2023-01-13T01:40:05.152Z,0.9
2023-01-13T01:45:05.145Z,0.9
2023-01-13T01:50:05.224Z,0.8
2023-01-13T01:55:05.153Z,0.8
2023-01-13T02:00:05.146Z,0.8
2023-01-13T02:05:05.173Z,0.9
2023-01-13T02:10:05.149Z,0.9
2023-01-13T02:15:05.147Z,0.9
2023-01-13T02:20:05.139Z,0.6
2023-01-13T02:25:05.154Z,0.8
2023-01-13T02:30:05.140Z,0.8
2023-01-13T02:35:05.150Z,0.6
2023-01-13T02:40:05.141Z,0.8
2023-01-13T02:45:05.146Z,1.2
2023-01-13T02:50:05.153Z,0.7
2023-01-13T02:55:05.146Z,0.7
2023-01-13T03:00:05.083Z,0.7
2023-01-13T03:05:05.096Z,1.2
2023-01-13T03:10:05.137Z,0.8
2023-01-13T03:15:05.079Z,0.9
2023-01-13T03:20:05.094Z,0.8
2023-01-13T03:25:05.082Z,0.6
2023-01-13T03:30:05.215Z,0.6
2023-01-13T03:35:05.384Z,0.8
2023-01-13T03:40:05.091Z,0.8
2023-01-13T03:45:05.206Z,0.9
2023-01-13T03:50:05.307Z,0.9
2023-01-13T03:55:05.478Z,0.6
2023-01-13T04:00:05.487Z,0.6
2023-01-13T04:05:05.372Z,0.7
2023-01-13T04:10:05.098Z,0.8
2023-01-13T04:15:05.095Z,0.7
2023-01-13T04:20:05.092Z,0.7
2023-01-13T04:25:05.083Z,0.5
2023-01-13T04:30:05.093Z,0.5
2023-01-13T04:35:05.095Z,0.8
2023-01-13T04:40:05.104Z,0.7
2023-01-13T04:45:05.090Z,0.8
2023-01-13T04:50:05.110Z,0.9
2023-01-13T04:55:05.097Z,0.7
2023-01-13T05:00:05.125Z,0.7
2023-01-13T05:05:05.132Z,0.6
2023-01-13T05:10:05.085Z,0.8
2023-01-13T05:15:05.090Z,0.6
2023-01-13T05:20:05.086Z,0.7
2023-01-13T05:25:05.096Z,0.5
2023-01-13T05:30:05.120Z,0.5
2023-01-13T05:35:05.095Z,0.7
2023-01-13T05:40:05.102Z,0.7
2023-01-13T05:45:05.099Z,0.8
2023-01-13T05:50:05.105Z,0.8
2023-01-13T05:55:05.101Z,0.7
2023-01-13T06:00:05.098Z,0.7
2023-01-13T06:05:05.098Z,0.8
2023-01-13T06:10:05.102Z,0.8
2023-01-13T06:15:05.087Z,0.9
2023-01-13T06:20:05.114Z,0.7
2023-01-13T06:25:05.091Z,0.9
2023-01-13T06:30:05.086Z,0.9
2023-01-13T06:35:05.672Z,0.8
2023-01-13T06:40:05.091Z,0.8
2023-01-13T06:45:05.102Z,1
2023-01-13T06:50:05.107Z,0.8
2023-01-13T06:55:05.094Z,0.9
2023-01-13T07:00:05.085Z,0.9
2023-01-13T07:05:05.089Z,0.8
2023-01-13T07:10:05.144Z,0.8
2023-01-13T07:15:05.096Z,1
2023-01-13T07:20:05.087Z,0.7
2023-01-13T07:25:05.097Z,0.7
2023-01-13T07:30:05.094Z,0.7
2023-01-13T07:35:05.115Z,0.8
2023-01-13T07:40:05.100Z,0.8
2023-01-13T07:45:05.090Z,0.4
2023-01-13T07:50:05.096Z,0.4
2023-01-13T07:55:05.092Z,0.4
2023-01-13T08:00:05.162Z,0.4
2023-01-13T08:05:05.095Z,0.2
2023-01-13T08:10:05.102Z,0.2
2023-01-13T08:15:05.097Z,0.3
2023-01-13T08:20:05.090Z,0.4
2023-01-13T08:25:05.094Z,0.3
2023-01-13T08:30:05.119Z,0.3
2023-01-13T08:35:05.083Z,0.3
2023-01-13T08:40:05.094Z,0.3
2023-01-13T08:45:05.087Z,0.4
2023-01-13T08:50:05.082Z,0.6
2023-01-13T08:55:05.102Z,0.3
2023-01-13T09:00:05.095Z,0.3
2023-01-13T09:05:05.089Z,0.4
2023-01-13T09:10:05.090Z,0.3
2023-01-13T09:15:05.092Z,0.5
2023-01-13T09:20:05.078Z,0.5
2023-01-13T09:25:05.083Z,0.4
2023-01-13T09:30:05.079Z,0.4
2023-01-13T09:35:05.093Z,0.5
2023-01-13T09:40:05.093Z,0.3
2023-01-13T09:45:05.095Z,0.4
2023-01-13T09:50:05.085Z,0.5
2023-01-13T09:55:05.094Z,0.5
2023-01-13T10:00:05.093Z,0.5
2023-01-13T10:05:05.208Z,0.5
2023-01-13T10:10:05.710Z,0.6
2023-01-13T10:15:05.094Z,0.5
2023-01-13T10:20:05.079Z,0.6
2023-01-13T10:25:05.105Z,0.6
2023-01-13T10:30:05.089Z,0.6
2023-01-13T10:35:05.085Z,0.6
2023-01-13T10:40:05.099Z,0.6
2023-01-13T10:45:05.092Z,0.8
2023-01-13T10:50:05.079Z,0.8
2023-01-13T10:55:05.092Z,0.8
2023-01-13T11:00:05.084Z,0.8
2023-01-13T11:05:05.091Z,1.1
2023-01-13T11:10:05.085Z,0.7
2023-01-13T11:15:05.081Z,0.8
2023-01-13T11:20:05.082Z,0.7
2023-01-13T11:25:05.111Z,0.9
2023-01-13T11:30:05.083Z,0.9
2023-01-13T11:35:05.095Z,0.9
2023-01-13T11:40:05.083Z,0.7
2023-01-13T11:45:05.087Z,0.7
2023-01-13T11:50:05.096Z,0.7
2023-01-13T11:55:05.096Z,0.8
2023-01-13T12:00:05.081Z,0.8
2023-01-13T12:05:05.104Z,0.9
2023-01-13T12:10:05.304Z,0.8
2023-01-13T12:15:05.086Z,0.8
2023-01-13T12:20:05.101Z,1.2
2023-01-13T12:25:05.092Z,1
2023-01-13T12:30:05.083Z,1
2023-01-13T12:35:05.151Z,1
2023-01-13T12:40:05.087Z,1.7
2023-01-13T12:45:05.083Z,0.9
2023-01-13T12:50:05.081Z,1
2023-01-13T12:55:05.131Z,1.1
2023-01-13T13:00:05.152Z,1.1
2023-01-13T13:05:05.089Z,1.3
2023-01-13T13:10:05.099Z,1
2023-01-13T13:15:05.181Z,1.2
2023-01-13T13:20:05.091Z,1.1
2023-01-13T13:25:05.085Z,1.2
2023-01-13T13:30:05.085Z,1.2
2023-01-13T13:35:05.090Z,0.9
2023-01-13T13:40:05.082Z,1.2
2023-01-13T13:45:05.103Z,1.2
2023-01-13T13:50:05.083Z,1.1
2023-01-13T13:55:05.094Z,1.3
2023-01-13T14:00:05.086Z,1.3
2023-01-13T14:05:05.215Z,1.6
2023-01-13T14:10:05.051Z,1.4
2023-01-13T14:15:05.044Z,1.5
2023-01-13T14:20:05.047Z,1.7
2023-01-13T14:25:05.068Z,1.3
2023-01-13T14:30:05.046Z,1.3
2023-01-13T14:35:05.026Z,1.2
2023-01-13T14:40:05.064Z,1.1
2023-01-13T14:45:05.026Z,1.2
2023-01-13T14:50:05.031Z,0.9
2023-01-13T14:55:05.023Z,1.1
2023-01-13T15:00:05.013Z,1.1
2023-01-13T15:05:05.021Z,1.2
2023-01-13T15:10:05.085Z,1.4
2023-01-13T15:15:05.009Z,1
2023-01-13T15:20:05.004Z,1.7
2023-01-13T15:25:05.017Z,1.4
2023-01-13T15:30:05.003Z,1.4
2023-01-13T15:35:05.007Z,1.6
2023-01-13T15:40:05.070Z,2.2
2023-01-13T15:45:05.006Z,1
2023-01-13T15:50:05.045Z,1.3
2023-01-13T15:55:05.031Z,1.3
2023-01-13T16:00:05.054Z,1.3
2023-01-13T16:05:05.020Z,2.1
2023-01-13T16:10:05.013Z,1.4
2023-01-13T16:15:05.026Z,1
2023-01-13T16:20:05.020Z,0.8
2023-01-13T16:25:05.043Z,1.2
2023-01-13T16:30:05.041Z,1.2
2023-01-13T16:35:05.070Z,1.2
2023-01-13T16:40:05.066Z,1.1
2023-01-13T16:45:05.072Z,0.8
2023-01-13T16:50:05.074Z,1.2
2023-01-13T16:55:05.110Z,1.2
2023-01-13T17:00:05.076Z,1.2
2023-01-13T17:05:05.135Z,1
2023-01-13T17:10:05.088Z,1
2023-01-13T17:15:05.154Z,1.5
2023-01-13T17:20:05.083Z,1.5
2023-01-13T17:25:05.087Z,1.5
2023-01-13T17:30:05.084Z,1.5
2023-01-13T17:35:05.087Z,1.5
2023-01-13T17:40:05.081Z,1.4
2023-01-13T17:45:05.165Z,2.5
2023-01-13T17:50:05.081Z,1.7
2023-01-13T17:55:05.089Z,2.7
2023-01-13T18:00:05.074Z,2.7
2023-01-13T18:05:05.084Z,2
2023-01-13T18:10:05.080Z,1.4
2023-01-13T18:15:05.075Z,1.6
2023-01-13T18:20:05.075Z,1.8
2023-01-13T18:25:05.075Z,1.8
2023-01-13T18:30:05.074Z,1.8
2023-01-13T18:35:06.612Z,1.4
2023-01-13T18:40:05.082Z,1.7
2023-01-13T18:45:05.084Z,2.3
2023-01-13T18:50:05.083Z,1.1
2023-01-13T18:55:05.084Z,1.9
2023-01-13T19:00:05.089Z,1.9
2023-01-13T19:05:05.077Z,1.5
2023-01-13T19:10:05.084Z,2.3
2023-01-13T19:15:05.085Z,2
2023-01-13T19:20:05.112Z,1.5
2023-01-13T19:25:05.085Z,1.8
2023-01-13T19:30:05.082Z,1.8
2023-01-13T19:35:05.083Z,1.7
2023-01-13T19:40:05.080Z,1.3
2023-01-13T19:45:05.087Z,1.8
2023-01-13T19:50:05.088Z,1.7
2023-01-13T19:55:05.085Z,1.5
2023-01-13T20:00:05.083Z,1.5
2023-01-13T20:05:05.086Z,1.6
2023-01-13T20:10:05.086Z,1.6
2023-01-13T20:15:05.095Z,1.4
2023-01-13T20:20:05.093Z,1.9
2023-01-13T20:25:05.112Z,1.5
2023-01-13T20:30:05.089Z,1.5
2023-01-13T20:35:05.094Z,1.9
2023-01-13T20:40:05.096Z,1.3
2023-01-13T20:45:05.090Z,1.6
2023-01-13T20:50:05.086Z,1.9
2023-01-13T20:55:05.104Z,2.9
2023-01-13T21:00:05.096Z,2.9
2023-01-13T21:05:05.092Z,1.3
2023-01-13T21:10:05.095Z,2.2
2023-01-13T21:15:05.095Z,2
2023-01-13T21:20:05.088Z,1.4
2023-01-13T21:25:05.085Z,1.7
2023-01-13T21:30:05.091Z,1.7
2023-01-13T21:35:05.096Z,2.1
2023-01-13T21:40:05.082Z,1.5
2023-01-13T21:45:05.092Z,1.5
2023-01-13T21:50:05.086Z,1.7
2023-01-13T21:55:05.100Z,1.8
2023-01-13T22:00:05.080Z,1.8
2023-01-13T22:05:05.087Z,1.6
2023-01-13T22:10:05.097Z,1.7
2023-01-13T22:15:05.147Z,2.5
2023-01-13T22:20:05.082Z,1.7
2023-01-13T22:25:05.087Z,1.8
2023-01-13T22:30:05.081Z,1.8
2023-01-13T22:35:05.095Z,1.6
2023-01-13T22:40:05.111Z,2
2023-01-13T22:45:05.086Z,2
2023-01-13T22:50:05.095Z,1.7
2023-01-13T22:55:05.089Z,2.3
2023-01-13T23:00:05.094Z,2.3
2023-01-13T23:05:05.098Z,1.8
2023-01-13T23:10:05.083Z,1.7
2023-01-13T23:15:05.080Z,1.9
2023-01-13T23:20:05.081Z,1.9
2023-01-13T23:25:05.091Z,1.8
2023-01-13T23:30:05.094Z,1.8
2023-01-13T23:35:05.113Z,1.9
2023-01-13T23:40:05.091Z,1.7
2023-01-13T23:45:05.090Z,1.8
2023-01-13T23:50:05.094Z,1.7
2023-01-13T23:55:05.103Z,3.3
